Time;durP1;ratioP1;P1;durP2;ratioP2;P2;SDS_P1;SDS_P2;PMS_P1;PMS_P2;Temp;Humidity;BMP_temperature;BMP_pressure;BME280_temperature;BME280_humidity;BME280_pressure;Samples;Min_cycle;Max_cycle;Signal;HPM_P1;HPM_P2
2022/09/08 00:02:17;;;;;;;;;;;;;;;;;;5028266;28;1299;-63
2022/09/08 00:04:42;;;;;;;;;;;;;;;;;;5027178;28;1165;-63
2022/09/08 00:07:08;;;;;;;;;;;;;;;;;;5017593;28;1512;-63
2022/09/08 00:09:33;;;;;;;;;;;;;;;;;;5019290;28;1421;-63
2022/09/08 00:12:00;;;;;;;;;;;;;;;;;;5021581;28;1374;-63
2022/09/08 00:14:25;;;;;;;;;;;;;;;;;;5027655;28;1171;-62
2022/09/08 00:16:50;;;;;;;;;;;;;;;;;;5028161;28;1398;-62
2022/09/08 00:19:16;;;;;;;;;;;;;;;;;;5031910;28;1957;-62
2022/09/08 00:21:41;;;;;;;;;;;;;;;;;;5023736;28;1052;-62
2022/09/08 00:24:06;;;;;;;;;;;;;;;;;;5031184;28;1374;-62
2022/09/08 00:26:31;;;;;;;;;;;;;;;;;;5031987;28;1354;-62
2022/09/08 00:28:57;;;;;;;;;;;;;;;;;;5030428;28;1446;-62
2022/09/08 00:31:22;;;;;;;;;;;;;;;;;;5025884;28;1441;-62
2022/09/08 00:33:47;;;;;;;;;;;;;;;;;;5033967;28;1174;-63
2022/09/08 00:36:15;;;;;;;;;;;;;;;;;;5023350;28;1494;-62
2022/09/08 00:38:40;;;;;;;;;;;;;;;;;;5018473;28;1334;-62
2022/09/08 00:41:09;;;;;;;;;;;;;;;;;;5034975;28;1965;-62
2022/09/08 00:43:41;;;;;;;;;;;;;;;;;;5024557;28;1339;-62
2022/09/08 00:46:09;;;;;;;;;;;;;;;;;;5025010;28;1351;-63
2022/09/08 00:48:38;;;;;;;;;;;;;;;;;;5034999;28;1087;-63
2022/09/08 00:51:03;;;;;;;;;;;;;;;;;;5043063;28;846;-63
2022/09/08 00:53:30;;;;;;;;;;;;;;;;;;5036006;28;1366;-64
2022/09/08 00:55:56;;;;;;;;;;;;;;;;;;5032629;28;1506;-63
2022/09/08 00:58:21;;;;;;;;;;;;;;;;;;5028116;28;1362;-63
2022/09/08 01:00:47;;;;;;;;;;;;;;;;;;5034906;28;1961;-63
2022/09/08 01:03:15;;;;;;;;;;;;;;;;;;5032552;28;1175;-62
2022/09/08 01:05:52;;;;;;;;;;;;;;;;;;5021386;28;1339;-63
2022/09/08 01:13:59;;;;;;;;;;;;;;;;;;5020711;28;1437;-63
2022/09/08 01:16:24;;;;;;;;;;;;;;;;;;5016061;28;1481;-63
2022/09/08 01:18:49;;;;;;;;;;;;;;;;;;5034577;28;1961;-63
2022/09/08 01:21:15;;;;;;;;;;;;;;;;;;5033795;28;1468;-63
2022/09/08 01:23:40;;;;;;;;;;;;;;;;;;5034692;28;1139;-63
2022/09/08 01:26:11;;;;;;;;;;;;;;;;;;5041821;28;1252;-63
2022/09/08 01:29:02;;;;;;;;;;;;;;;;;;5034999;28;1430;-63
2022/09/08 01:31:30;;;;;;;;;;;;;;;;;;5016491;28;1424;-63
2022/09/08 01:33:57;;;;;;;;;;;;;;;;;;5027592;28;1496;-62
2022/09/08 01:36:23;;;;;;;;;;;;;;;;;;5022027;28;1240;-63
2022/09/08 01:38:48;;;;;;;;;;;;;;;;;;5018931;28;1898;-62
2022/09/08 01:41:16;;;;;;;;;;;;;;;;;;5018613;28;1362;-63
2022/09/08 01:43:41;;;;;;;;;;;;;;;;;;5033122;28;1378;-62
2022/09/08 01:46:06;;;;;;;;;;;;;;;;;;5029954;28;1471;-62
2022/09/08 01:48:31;;;;;;;;;;;;;;;;;;5029343;28;1370;-63
2022/09/08 01:50:58;;;;;;;;;;;;;;;;;;5030432;28;1511;-63
2022/09/08 01:53:23;;;;;;;;;;;;;;;;;;5042315;28;1246;-63
2022/09/08 01:55:48;;;;;;;;;;;;;;;;;;5028513;28;1474;-62
2022/09/08 01:58:13;;;;;;;;;;;;;;;;;;5031862;28;1374;-62
2022/09/08 02:00:41;;;;;;;;;;;;;;;;;;5028751;28;1906;-62
2022/09/08 02:03:07;;;;;;;;;;;;;;;;;;5031378;28;994;-62
2022/09/08 02:05:32;;;;;;;;;;;;;;;;;;5041555;28;1144;-63
2022/09/08 02:07:58;;;;;;;;;;;;;;;;;;5042213;28;858;-62
2022/09/08 02:10:23;;;;;;;;;;;;;;;;;;5028548;28;1557;-62
2022/09/08 02:12:48;;;;;;;;;;;;;;;;;;5033137;28;1151;-62
2022/09/08 02:15:13;;;;;;;;;;;;;;;;;;5027864;28;1388;-62
2022/09/08 02:17:38;;;;;;;;;;;;;;;;;;5028030;28;1371;-62
2022/09/08 02:20:04;;;;;;;;;;;;;;;;;;5039267;28;1909;-62
2022/09/08 02:22:30;;;;;;;;;;;;;;;;;;5041775;28;890;-62
2022/09/08 02:24:55;;;;;;;;;;;;;;;;;;5032337;28;1371;-62
2022/09/08 02:27:20;;;;;;;;;;;;;;;;;;5028365;28;1357;-63
2022/09/08 02:29:46;;;;;;;;;;;;;;;;;;5024412;28;1453;-62
2022/09/08 02:32:11;;;;;;;;;;;;;;;;;;5029472;28;1375;-62
2022/09/08 02:34:36;;;;;;;;;;;;;;;;;;5021329;28;1280;-62
2022/09/08 02:37:02;;;;;;;;;;;;;;;;;;5001919;28;1236;-62
2022/09/08 02:39:28;;;;;;;;;;;;;;;;;;5008771;28;1971;-62
2022/09/08 02:41:54;;;;;;;;;;;;;;;;;;5035813;28;1213;-62
2022/09/08 02:44:19;;;;;;;;;;;;;;;;;;5035105;28;1361;-62
2022/09/08 02:46:44;;;;;;;;;;;;;;;;;;5031510;28;1351;-63
2022/09/08 02:49:13;;;;;;;;;;;;;;;;;;5028173;28;1159;-62
2022/09/08 02:51:38;;;;;;;;;;;;;;;;;;5021527;28;865;-62
2022/09/08 02:54:03;;;;;;;;;;;;;;;;;;5021097;28;1351;-62
2022/09/08 02:56:29;;;;;;;;;;;;;;;;;;5028175;28;1345;-62
2022/09/08 02:58:54;;;;;;;;;;;;;;;;;;5030451;28;1949;-62
2022/09/08 03:01:20;;;;;;;;;;;;;;;;;;5030162;28;1475;-62
2022/09/08 03:03:46;;;;;;;;;;;;;;;;;;5026262;28;1405;-63
2022/09/08 03:06:11;;;;;;;;;;;;;;;;;;5037125;28;1264;-63
2022/09/08 03:08:36;;;;;;;;;;;;;;;;;;5036487;28;1326;-63
2022/09/08 03:11:03;;;;;;;;;;;;;;;;;;5029761;28;997;-63
2022/09/08 03:13:28;;;;;;;;;;;;;;;;;;5031968;28;1379;-62
2022/09/08 03:15:53;;;;;;;;;;;;;;;;;;5018515;28;1393;-62
2022/09/08 03:18:18;;;;;;;;;;;;;;;;;;5028642;28;1386;-63
2022/09/08 03:20:45;;;;;;;;;;;;;;;;;;5029509;28;1960;-62
2022/09/08 03:23:18;;;;;;;;;;;;;;;;;;5005569;28;1472;-63
2022/09/08 03:25:44;;;;;;;;;;;;;;;;;;5025568;28;1535;-63
2022/09/08 03:28:14;;;;;;;;;;;;;;;;;;5032649;28;1143;-63
2022/09/08 03:30:39;;;;;;;;;;;;;;;;;;5023894;28;1581;-63
2022/09/08 03:33:04;;;;;;;;;;;;;;;;;;5029666;28;1136;-62
2022/09/08 03:35:29;;;;;;;;;;;;;;;;;;5039059;28;1255;-62
2022/09/08 03:37:55;;;;;;;;;;;;;;;;;;5037438;28;1338;-62
2022/09/08 03:40:20;;;;;;;;;;;;;;;;;;5024299;28;1907;-62
2022/09/08 03:42:45;;;;;;;;;;;;;;;;;;5019791;28;1393;-62
2022/09/08 03:45:12;;;;;;;;;;;;;;;;;;5021573;28;1378;-63
2022/09/08 03:47:37;;;;;;;;;;;;;;;;;;5020737;28;1256;-63
2022/09/08 03:50:03;;;;;;;;;;;;;;;;;;5015816;28;1282;-62
2022/09/08 03:52:28;;;;;;;;;;;;;;;;;;5023393;28;1362;-62
2022/09/08 03:54:53;;;;;;;;;;;;;;;;;;5033367;28;1373;-62
2022/09/08 03:57:21;;;;;;;;;;;;;;;;;;5024894;28;1453;-61
2022/09/08 03:59:47;;;;;;;;;;;;;;;;;;5024423;28;1910;-61
2022/09/08 04:02:13;;;;;;;;;;;;;;;;;;5019077;28;1357;-61
2022/09/08 04:04:39;;;;;;;;;;;;;;;;;;5027778;28;1084;-61
2022/09/08 04:07:04;;;;;;;;;;;;;;;;;;5023039;28;1262;-61
2022/09/08 04:09:30;;;;;;;;;;;;;;;;;;5023742;28;842;-62
2022/09/08 04:11:55;;;;;;;;;;;;;;;;;;5023531;28;1471;-62
2022/09/08 04:14:20;;;;;;;;;;;;;;;;;;5019339;28;1404;-62
2022/09/08 04:16:45;;;;;;;;;;;;;;;;;;5029218;28;1366;-62
2022/09/08 04:19:12;;;;;;;;;;;;;;;;;;5035546;28;1949;-62
2022/09/08 04:21:37;;;;;;;;;;;;;;;;;;5043805;28;842;-62
2022/09/08 04:24:02;;;;;;;;;;;;;;;;;;5031730;28;1349;-59
2022/09/08 04:26:28;;;;;;;;;;;;;;;;;;5034634;28;1430;-60
2022/09/08 04:28:53;;;;;;;;;;;;;;;;;;5023699;28;792;-60
2022/09/08 04:31:19;;;;;;;;;;;;;;;;;;5009395;28;1274;-60
2022/09/08 04:33:44;;;;;;;;;;;;;;;;;;5023418;28;850;-60
2022/09/08 04:36:11;;;;;;;;;;;;;;;;;;5022978;28;1435;-61
2022/09/08 04:38:37;;;;;;;;;;;;;;;;;;5023719;28;910;-60
2022/09/08 04:41:06;;;;;;;;;;;;;;;;;;5021651;28;1949;-60
2022/09/08 04:43:32;;;;;;;;;;;;;;;;;;5023328;28;1040;-60
2022/09/08 04:46:05;;;;;;;;;;;;;;;;;;5021780;28;1189;-61
2022/09/08 04:48:31;;;;;;;;;;;;;;;;;;5022830;28;1518;-61
2022/09/08 04:50:57;;;;;;;;;;;;;;;;;;5021521;28;1242;-61
2022/09/08 04:53:22;;;;;;;;;;;;;;;;;;5023744;28;1192;-60
2022/09/08 04:55:47;;;;;;;;;;;;;;;;;;5021994;28;1358;-61
2022/09/08 04:58:13;;;;;;;;;;;;;;;;;;5021816;28;1296;-60
2022/09/08 05:00:38;;;;;;;;;;;;;;;;;;5058258;22;2267;-61
2022/09/08 05:03:03;;;;;;;;;;;;;;;;;;5042931;28;834;-61
2022/09/08 05:05:28;;;;;;;;;;;;;;;;;;5042444;28;1539;-61
2022/09/08 05:07:54;;;;;;;;;;;;;;;;;;5042696;28;1345;-61
2022/09/08 05:10:19;;;;;;;;;;;;;;;;;;5022513;28;1189;-62
2022/09/08 05:12:44;;;;;;;;;;;;;;;;;;5022946;28;1033;-62
2022/09/08 05:15:10;;;;;;;;;;;;;;;;;;5022871;28;1488;-62
2022/09/08 05:17:35;;;;;;;;;;;;;;;;;;5042827;28;827;-61
2022/09/08 05:20:00;;;;;;;;;;;;;;;;;;5023168;28;1989;-62
2022/09/08 05:22:25;;;;;;;;;;;;;;;;;;5022860;28;1029;-62
2022/09/08 05:24:52;;;;;;;;;;;;;;;;;;5021500;28;957;-61
2022/09/08 05:27:17;;;;;;;;;;;;;;;;;;5022654;28;905;-61
2022/09/08 05:29:43;;;;;;;;;;;;;;;;;;5021593;28;1350;-63
2022/09/08 05:32:08;;;;;;;;;;;;;;;;;;5020493;28;1337;-64
2022/09/08 05:34:33;;;;;;;;;;;;;;;;;;5014504;28;1335;-63
2022/09/08 05:36:59;;;;;;;;;;;;;;;;;;5017048;28;1365;-64
2022/09/08 05:39:24;;;;;;;;;;;;;;;;;;5014253;28;1902;-64
2022/09/08 05:41:49;;;;;;;;;;;;;;;;;;5022766;28;811;-64
2022/09/08 05:44:14;;;;;;;;;;;;;;;;;;5022410;28;831;-64
2022/09/08 05:46:39;;;;;;;;;;;;;;;;;;5021991;28;895;-64
2022/09/08 05:49:05;;;;;;;;;;;;;;;;;;5021744;28;1508;-64
2022/09/08 05:51:32;;;;;;;;;;;;;;;;;;5021862;28;1527;-64
2022/09/08 05:53:58;;;;;;;;;;;;;;;;;;5022282;28;1409;-64
2022/09/08 05:56:23;;;;;;;;;;;;;;;;;;5021828;28;893;-64
2022/09/08 05:58:50;;;;;;;;;;;;;;;;;;5022497;28;906;-64
2022/09/08 06:01:15;;;;;;;;;;;;;;;;;;5021892;28;1947;-64
2022/09/08 06:03:40;;;;;;;;;;;;;;;;;;5022003;28;1390;-64
2022/09/08 06:06:07;;;;;;;;;;;;;;;;;;5021454;28;850;-64
2022/09/08 06:08:32;;;;;;;;;;;;;;;;;;5021860;28;1480;-64
2022/09/08 06:10:58;;;;;;;;;;;;;;;;;;5022140;28;1179;-64
2022/09/08 06:13:23;;;;;;;;;;;;;;;;;;5021107;28;795;-64
2022/09/08 06:15:49;;;;;;;;;;;;;;;;;;5021530;28;993;-64
2022/09/08 06:18:15;;;;;;;;;;;;;;;;;;5021893;28;1582;-64
2022/09/08 06:20:40;;;;;;;;;;;;;;;;;;5021851;28;1977;-64
2022/09/08 06:23:06;;;;;;;;;;;;;;;;;;5022240;28;803;-64
2022/09/08 06:25:37;;;;;;;;;;;;;;;;;;5021350;28;842;-64
2022/09/08 06:28:08;;;;;;;;;;;;;;;;;;5022011;28;1111;-64
2022/09/08 06:30:33;;;;;;;;;;;;;;;;;;5021521;28;1445;-64
2022/09/08 06:33:00;;;;;;;;;;;;;;;;;;5021955;28;887;-64
2022/09/08 06:35:28;;;;;;;;;;;;;;;;;;5021071;28;973;-64
2022/09/08 06:38:02;;;;;;;;;;;;;;;;;;5005283;28;1453;-64
2022/09/08 06:40:30;;;;;;;;;;;;;;;;;;5021404;28;1902;-64
2022/09/08 06:43:01;;;;;;;;;;;;;;;;;;5021574;28;795;-64
2022/09/08 06:45:28;;;;;;;;;;;;;;;;;;5019208;28;1448;-64
2022/09/08 06:48:12;;;;;;;;;;;;;;;;;;5021065;28;1409;-64
2022/09/08 06:50:40;;;;;;;;;;;;;;;;;;5021319;28;1272;-64
2022/09/08 06:53:10;;;;;;;;;;;;;;;;;;5021376;28;1469;-64
2022/09/08 06:55:43;;;;;;;;;;;;;;;;;;5020787;28;807;-64
2022/09/08 06:58:26;;;;;;;;;;;;;;;;;;5003942;28;910;-64
2022/09/08 07:00:56;;;;;;;;;;;;;;;;;;5003713;28;1977;-64
2022/09/08 07:03:43;;;;;;;;;;;;;;;;;;5021416;28;969;-64
2022/09/08 07:06:09;;;;;;;;;;;;;;;;;;5003150;28;1436;-63
2022/09/08 07:08:43;;;;;;;;;;;;;;;;;;5021417;28;1492;-64
2022/09/08 07:11:11;;;;;;;;;;;;;;;;;;5021172;28;1165;-64
2022/09/08 07:13:42;;;;;;;;;;;;;;;;;;5021370;28;1009;-64
2022/09/08 07:16:26;;;;;;;;;;;;;;;;;;5020079;28;1658;-64
2022/09/08 07:18:56;;;;;;;;;;;;;;;;;;5019806;28;1164;-64
2022/09/08 07:21:38;;;;;;;;;;;;;;;;;;5020996;28;1890;-64
2022/09/08 07:24:04;;;;;;;;;;;;;;;;;;5020790;28;1512;-64
2022/09/08 07:26:36;;;;;;;;;;;;;;;;;;5020503;28;850;-64
2022/09/08 07:29:05;;;;;;;;;;;;;;;;;;5020748;28;1184;-64
2022/09/08 07:31:30;;;;;;;;;;;;;;;;;;5020902;28;1591;-64
2022/09/08 07:34:06;;;;;;;;;;;;;;;;;;5020707;28;1440;-64
2022/09/08 07:36:41;;;;;;;;;;;;;;;;;;5020221;28;1569;-64
2022/09/08 07:39:17;;;;;;;;;;;;;;;;;;5020821;28;1878;-63
2022/09/08 07:41:49;;;;;;;;;;;;;;;;;;5020859;28;823;-64
2022/09/08 07:44:16;;;;;;;;;;;;;;;;;;5020554;28;1464;-64
2022/09/08 07:46:41;;;;;;;;;;;;;;;;;;5020165;28;866;-64
2022/09/08 07:49:25;;;;;;;;;;;;;;;;;;5020710;28;1465;-64
2022/09/08 07:52:13;;;;;;;;;;;;;;;;;;5020807;28;1092;-64
2022/09/08 07:54:44;;;;;;;;;;;;;;;;;;5011987;28;1281;-64
2022/09/08 07:57:19;;;;;;;;;;;;;;;;;;5020502;28;1069;-64
2022/09/08 07:59:47;;;;;;;;;;;;;;;;;;5019426;28;1894;-64
2022/09/08 08:02:31;;;;;;;;;;;;;;;;;;5020671;28;831;-64
2022/09/08 08:05:01;;;;;;;;;;;;;;;;;;5019814;28;1567;-64
2022/09/08 08:07:40;;;;;;;;;;;;;;;;;;5020660;28;826;-64
2022/09/08 08:10:25;;;;;;;;;;;;;;;;;;5020442;28;1216;-64
2022/09/08 08:13:03;;;;;;;;;;;;;;;;;;5020125;28;1030;-64
2022/09/08 08:15:28;;;;;;;;;;;;;;;;;;5019873;28;1048;-64
2022/09/08 08:17:53;;;;;;;;;;;;;;;;;;5020800;28;890;-64
2022/09/08 08:20:28;;;;;;;;;;;;;;;;;;5020175;28;1890;-63
2022/09/08 08:22:55;;;;;;;;;;;;;;;;;;5020718;28;1000;-63
2022/09/08 08:25:25;;;;;;;;;;;;;;;;;;5019534;28;1520;-63
2022/09/08 08:28:12;;;;;;;;;;;;;;;;;;5020386;28;874;-64
2022/09/08 08:30:55;;;;;;;;;;;;;;;;;;5001024;28;1251;-64
2022/09/08 08:33:23;;;;;;;;;;;;;;;;;;5005066;28;1481;-64
2022/09/08 08:35:57;;;;;;;;;;;;;;;;;;5018429;28;966;-64
2022/09/08 08:38:25;;;;;;;;;;;;;;;;;;5023352;28;1531;-64
2022/09/08 08:40:50;;;;;;;;;;;;;;;;;;5023328;28;1902;-63
2022/09/08 08:43:20;;;;;;;;;;;;;;;;;;5023417;28;835;-63
2022/09/08 08:45:45;;;;;;;;;;;;;;;;;;5005412;28;1392;-64
2022/09/08 08:48:20;;;;;;;;;;;;;;;;;;5023335;28;915;-63
2022/09/08 08:50:55;;;;;;;;;;;;;;;;;;5023398;28;1168;-63
2022/09/08 08:53:35;;;;;;;;;;;;;;;;;;5023410;28;1476;-63
2022/09/08 08:56:12;;;;;;;;;;;;;;;;;;5020078;28;1541;-64
2022/09/08 08:58:50;;;;;;;;;;;;;;;;;;5023386;28;1528;-63
2022/09/08 09:01:15;;;;;;;;;;;;;;;;;;5023123;28;1985;-63
2022/09/08 09:03:49;;;;;;;;;;;;;;;;;;5023194;28;847;-63
2022/09/08 09:06:14;;;;;;;;;;;;;;;;;;5021871;28;1534;-63
2022/09/08 09:08:39;;;;;;;;;;;;;;;;;;5022468;28;1504;-63
2022/09/08 09:11:04;;;;;;;;;;;;;;;;;;5022460;28;1185;-63
2022/09/08 09:13:35;;;;;;;;;;;;;;;;;;5022446;28;1500;-63
2022/09/08 09:16:06;;;;;;;;;;;;;;;;;;5021749;28;811;-63
2022/09/08 09:18:44;;;;;;;;;;;;;;;;;;5022399;28;1456;-63
2022/09/08 09:21:09;;;;;;;;;;;;;;;;;;5022434;28;1953;-63
2022/09/08 09:23:53;;;;;;;;;;;;;;;;;;5022492;28;807;-63
2022/09/08 09:26:19;;;;;;;;;;;;;;;;;;5021814;28;989;-63
2022/09/08 09:28:52;;;;;;;;;;;;;;;;;;5022312;28;1444;-63
2022/09/08 09:31:41;;;;;;;;;;;;;;;;;;5022378;28;945;-63
2022/09/08 09:34:06;;;;;;;;;;;;;;;;;;5014039;28;1532;-64
2022/09/08 09:36:42;;;;;;;;;;;;;;;;;;5021384;28;1036;-63
2022/09/08 09:39:10;;;;;;;;;;;;;;;;;;5021927;28;1894;-63
2022/09/08 09:41:47;;;;;;;;;;;;;;;;;;5022261;28;796;-63
2022/09/08 09:44:29;;;;;;;;;;;;;;;;;;5022293;28;894;-63
2022/09/08 09:46:57;;;;;;;;;;;;;;;;;;5021120;28;995;-63
2022/09/08 09:49:43;;;;;;;;;;;;;;;;;;5021165;28;1253;-64
2022/09/08 09:52:17;;;;;;;;;;;;;;;;;;5007776;28;1103;-63
2022/09/08 09:55:01;;;;;;;;;;;;;;;;;;5021313;28;1508;-63
2022/09/08 09:57:29;;;;;;;;;;;;;;;;;;5002366;28;850;-64
2022/09/08 10:00:13;;;;;;;;;;;;;;;;;;5002144;28;1981;-63
2022/09/08 10:02:38;;;;;;;;;;;;;;;;;;5009443;28;1413;-63
2022/09/08 10:05:09;;;;;;;;;;;;;;;;;;5021236;28;799;-63
2022/09/08 10:07:52;;;;;;;;;;;;;;;;;;5021666;28;914;-64
2022/09/08 10:10:36;;;;;;;;;;;;;;;;;;5021951;28;1164;-64
2022/09/08 10:13:16;;;;;;;;;;;;;;;;;;5021721;28;1006;-63
2022/09/08 10:15:42;;;;;;;;;;;;;;;;;;5019582;28;1551;-63
2022/09/08 10:18:07;;;;;;;;;;;;;;;;;;5020737;28;1044;-64
2022/09/08 10:20:44;;;;;;;;;;;;;;;;;;5021426;28;1906;-63
2022/09/08 10:23:18;;;;;;;;;;;;;;;;;;5021603;28;899;-63
2022/09/08 10:26:09;;;;;;;;;;;;;;;;;;5020456;28;1001;-63
2022/09/08 10:29:10;;;;;;;;;;;;;;;;;;5017395;28;1176;-63
2022/09/08 10:31:50;;;;;;;;;;;;;;;;;;4953466;28;1531;-64
2022/09/08 10:34:34;;;;;;;;;;;;;;;;;;5014725;28;1075;-63
2022/09/08 10:37:00;;;;;;;;;;;;;;;;;;5021252;28;946;-64
2022/09/08 10:39:34;;;;;;;;;;;;;;;;;;5021257;28;1898;-64
2022/09/08 10:42:18;;;;;;;;;;;;;;;;;;5021445;28;965;-63
2022/09/08 10:44:49;;;;;;;;;;;;;;;;;;5020248;28;1526;-63
2022/09/08 10:47:26;;;;;;;;;;;;;;;;;;5021092;28;815;-64
2022/09/08 10:50:05;;;;;;;;;;;;;;;;;;5021233;28;1492;-64
2022/09/08 10:52:49;;;;;;;;;;;;;;;;;;5020875;28;1503;-64
2022/09/08 10:55:34;;;;;;;;;;;;;;;;;;5020435;28;823;-63
2022/09/08 10:58:12;;;;;;;;;;;;;;;;;;5020571;28;1456;-63
2022/09/08 11:01:00;;;;;;;;;;;;;;;;;;5031740;22;3537;-72
2022/09/08 11:03:44;;;;;;;;;;;;;;;;;;4993470;28;1118;-72
2022/09/08 11:06:33;;;;;;;;;;;;;;;;;;5020723;28;1465;-72
2022/09/08 11:09:09;;;;;;;;;;;;;;;;;;5021541;28;843;-72
2022/09/08 11:11:37;;;;;;;;;;;;;;;;;;5039464;28;1310;-72
2022/09/08 11:14:20;;;;;;;;;;;;;;;;;;5008233;28;1714;-71
2022/09/08 11:17:07;;;;;;;;;;;;;;;;;;5020847;28;1057;-71
2022/09/08 11:19:32;;;;;;;;;;;;;;;;;;5022009;28;1911;-71
2022/09/08 11:22:04;;;;;;;;;;;;;;;;;;5022181;28;1571;-71
2022/09/08 11:24:48;;;;;;;;;;;;;;;;;;5021681;28;1468;-72
2022/09/08 11:27:42;;;;;;;;;;;;;;;;;;5024403;28;1479;-72
2022/09/08 11:30:12;;;;;;;;;;;;;;;;;;5023408;28;1247;-72
2022/09/08 11:32:47;;;;;;;;;;;;;;;;;;5040825;28;1472;-72
2022/09/08 11:35:20;;;;;;;;;;;;;;;;;;5039190;28;898;-72
2022/09/08 11:37:58;;;;;;;;;;;;;;;;;;5024380;28;1014;-72
2022/09/08 11:40:26;;;;;;;;;;;;;;;;;;5019700;28;1894;-72
2022/09/08 11:43:09;;;;;;;;;;;;;;;;;;5030078;28;1447;-72
2022/09/08 11:46:02;;;;;;;;;;;;;;;;;;5038441;28;858;-72
2022/09/08 11:48:30;;;;;;;;;;;;;;;;;;5039739;28;917;-72
2022/09/08 11:50:56;;;;;;;;;;;;;;;;;;5040531;28;1152;-72
2022/09/08 11:53:33;;;;;;;;;;;;;;;;;;5028968;28;1421;-72
2022/09/08 11:56:14;;;;;;;;;;;;;;;;;;5020608;28;843;-72
2022/09/08 11:58:44;;;;;;;;;;;;;;;;;;5021009;28;803;-72
2022/09/08 12:01:28;;;;;;;;;;;;;;;;;;5036604;28;1946;-72
2022/09/08 12:04:02;;;;;;;;;;;;;;;;;;5040618;28;1002;-72
2022/09/08 12:06:46;;;;;;;;;;;;;;;;;;5039895;28;890;-72
2022/09/08 12:09:29;;;;;;;;;;;;;;;;;;5040583;28;850;-72
2022/09/08 12:12:13;;;;;;;;;;;;;;;;;;5040869;28;1531;-72
2022/09/08 12:14:41;;;;;;;;;;;;;;;;;;5043310;28;985;-72
2022/09/08 12:17:24;;;;;;;;;;;;;;;;;;5043868;28;886;-72
2022/09/08 12:20:09;;;;;;;;;;;;;;;;;;5044013;28;1967;-72
2022/09/08 12:22:44;;;;;;;;;;;;;;;;;;5043943;28;827;-72
2022/09/08 12:25:28;;;;;;;;;;;;;;;;;;5042939;28;1464;-72
2022/09/08 12:28:05;;;;;;;;;;;;;;;;;;5043736;28;910;-72
2022/09/08 12:30:48;;;;;;;;;;;;;;;;;;5043784;28;1148;-71
2022/09/08 12:33:40;;;;;;;;;;;;;;;;;;5043542;28;1459;-71
2022/09/08 12:36:19;;;;;;;;;;;;;;;;;;5042802;28;1428;-72
2022/09/08 12:39:04;;;;;;;;;;;;;;;;;;5041931;28;1456;-72
2022/09/08 12:41:29;;;;;;;;;;;;;;;;;;5043510;28;1959;-71
2022/09/08 12:44:10;;;;;;;;;;;;;;;;;;5043531;28;815;-71
2022/09/08 12:46:54;;;;;;;;;;;;;;;;;;5042910;28;1001;-71
2022/09/08 12:49:28;;;;;;;;;;;;;;;;;;5042680;28;1480;-71
2022/09/08 12:51:56;;;;;;;;;;;;;;;;;;5043574;28;1010;-71
2022/09/08 12:54:38;;;;;;;;;;;;;;;;;;5043031;28;838;-72
2022/09/08 12:57:03;;;;;;;;;;;;;;;;;;5043169;28;819;-72
2022/09/08 12:59:28;;;;;;;;;;;;;;;;;;5043015;28;1894;-71
2022/09/08 13:02:12;;;;;;;;;;;;;;;;;;5043693;28;923;-71
2022/09/08 13:04:54;;;;;;;;;;;;;;;;;;5042125;28;1452;-72
2022/09/08 13:07:34;;;;;;;;;;;;;;;;;;5037119;28;1535;-72
2022/09/08 13:10:02;;;;;;;;;;;;;;;;;;5023311;28;1267;-72
2022/09/08 13:12:41;;;;;;;;;;;;;;;;;;5024421;28;1550;-72
2022/09/08 13:15:15;;;;;;;;;;;;;;;;;;5022513;28;942;-72
2022/09/08 13:17:40;;;;;;;;;;;;;;;;;;5005398;28;1553;-71
2022/09/08 13:20:08;;;;;;;;;;;;;;;;;;5005515;28;1965;-71
2022/09/08 13:22:41;;;;;;;;;;;;;;;;;;5031700;28;1574;-71
2022/09/08 13:25:22;;;;;;;;;;;;;;;;;;5042344;28;902;-71
2022/09/08 13:28:06;;;;;;;;;;;;;;;;;;5042719;28;1453;-71
2022/09/08 13:30:31;;;;;;;;;;;;;;;;;;5043031;28;1167;-71
2022/09/08 13:33:00;;;;;;;;;;;;;;;;;;5041089;28;1492;-71
2022/09/08 13:35:28;;;;;;;;;;;;;;;;;;5042150;28;885;-70
2022/09/08 13:38:14;;;;;;;;;;;;;;;;;;5024539;28;1359;-71
2022/09/08 13:40:54;;;;;;;;;;;;;;;;;;5024741;28;1949;-71
2022/09/08 13:43:33;;;;;;;;;;;;;;;;;;5042589;28;1000;-71
2022/09/08 13:46:08;;;;;;;;;;;;;;;;;;5041748;28;1385;-71
2022/09/08 13:48:51;;;;;;;;;;;;;;;;;;5042589;28;834;-71
2022/09/08 13:51:23;;;;;;;;;;;;;;;;;;5042871;28;1192;-71
2022/09/08 13:53:57;;;;;;;;;;;;;;;;;;5042551;28;909;-71
2022/09/08 13:56:32;;;;;;;;;;;;;;;;;;5041971;28;862;-70
2022/09/08 13:59:07;;;;;;;;;;;;;;;;;;5042305;28;862;-71
2022/09/08 14:01:35;;;;;;;;;;;;;;;;;;5040487;28;1898;-71
2022/09/08 14:04:12;;;;;;;;;;;;;;;;;;5042155;28;977;-71
2022/09/08 14:06:43;;;;;;;;;;;;;;;;;;5041707;28;906;-71
2022/09/08 14:09:19;;;;;;;;;;;;;;;;;;5042015;28;1048;-71
2022/09/08 14:11:51;;;;;;;;;;;;;;;;;;5040773;28;1472;-71
2022/09/08 14:14:17;;;;;;;;;;;;;;;;;;5042280;28;823;-71
2022/09/08 14:16:42;;;;;;;;;;;;;;;;;;5041273;28;1494;-71
2022/09/08 14:19:08;;;;;;;;;;;;;;;;;;5041994;28;910;-71
2022/09/08 14:21:33;;;;;;;;;;;;;;;;;;5006933;28;1956;-71
2022/09/08 14:24:11;;;;;;;;;;;;;;;;;;5022007;28;824;-72
2022/09/08 14:26:36;;;;;;;;;;;;;;;;;;5021506;28;847;-71
2022/09/08 14:29:10;;;;;;;;;;;;;;;;;;5032495;28;1459;-71
2022/09/08 14:31:48;;;;;;;;;;;;;;;;;;5042167;28;1155;-71
2022/09/08 14:34:33;;;;;;;;;;;;;;;;;;5041007;28;997;-71
2022/09/08 14:37:12;;;;;;;;;;;;;;;;;;5002517;28;945;-71
2022/09/08 14:39:55;;;;;;;;;;;;;;;;;;5002252;28;2017;-71
2022/09/08 14:42:22;;;;;;;;;;;;;;;;;;5002163;28;839;-71
2022/09/08 14:45:06;;;;;;;;;;;;;;;;;;5001494;28;866;-72
2022/09/08 14:47:38;;;;;;;;;;;;;;;;;;5002179;28;993;-70
2022/09/08 14:50:07;;;;;;;;;;;;;;;;;;5015532;28;1471;-71
2022/09/08 14:52:49;;;;;;;;;;;;;;;;;;5022098;28;898;-72
2022/09/08 14:55:17;;;;;;;;;;;;;;;;;;5020846;28;1361;-71
2022/09/08 14:57:45;;;;;;;;;;;;;;;;;;5035434;28;1484;-71
2022/09/08 15:00:36;;;;;;;;;;;;;;;;;;5023515;28;1893;-71
2022/09/08 15:03:07;;;;;;;;;;;;;;;;;;5040952;28;1476;-71
2022/09/08 15:05:32;;;;;;;;;;;;;;;;;;5041003;28;807;-71
2022/09/08 15:08:21;;;;;;;;;;;;;;;;;;5027827;28;1471;-71
2022/09/08 15:11:07;;;;;;;;;;;;;;;;;;5015021;28;1787;-71
2022/09/08 15:13:34;;;;;;;;;;;;;;;;;;5021495;28;859;-71
2022/09/08 15:16:18;;;;;;;;;;;;;;;;;;5020779;28;1053;-72
2022/09/08 15:19:03;;;;;;;;;;;;;;;;;;5021457;28;910;-72
2022/09/08 15:21:42;;;;;;;;;;;;;;;;;;5020778;28;1902;-71
2022/09/08 15:24:26;;;;;;;;;;;;;;;;;;5034571;28;1472;-71
2022/09/08 15:26:57;;;;;;;;;;;;;;;;;;5001568;28;1053;-72
2022/09/08 15:29:41;;;;;;;;;;;;;;;;;;5001338;28;1057;-71
2022/09/08 15:32:06;;;;;;;;;;;;;;;;;;5028006;28;1460;-71
2022/09/08 15:34:35;;;;;;;;;;;;;;;;;;5040159;28;866;-72
2022/09/08 15:37:19;;;;;;;;;;;;;;;;;;5041159;28;933;-72
2022/09/08 15:39:55;;;;;;;;;;;;;;;;;;5040645;28;1894;-72
2022/09/08 15:42:34;;;;;;;;;;;;;;;;;;5023048;28;1339;-72
2022/09/08 15:45:00;;;;;;;;;;;;;;;;;;5022863;28;1574;-73
2022/09/08 15:47:28;;;;;;;;;;;;;;;;;;5027212;28;1467;-73
2022/09/08 15:50:13;;;;;;;;;;;;;;;;;;5024206;28;1157;-70
2022/09/08 15:52:49;;;;;;;;;;;;;;;;;;5017287;28;1579;-72
2022/09/08 15:55:39;;;;;;;;;;;;;;;;;;4986407;28;800;-71
2022/09/08 15:58:14;;;;;;;;;;;;;;;;;;4987419;28;1321;-72
2022/09/08 16:00:45;;;;;;;;;;;;;;;;;;5020930;28;1960;-72
2022/09/08 16:03:10;;;;;;;;;;;;;;;;;;5044159;28;989;-72
2022/09/08 16:05:38;;;;;;;;;;;;;;;;;;5023889;28;1445;-72
2022/09/08 16:08:03;;;;;;;;;;;;;;;;;;5026376;28;1314;-72
2022/09/08 16:10:28;;;;;;;;;;;;;;;;;;5026817;28;1196;-72
2022/09/08 16:13:13;;;;;;;;;;;;;;;;;;5027067;28;1401;-72
2022/09/08 16:15:41;;;;;;;;;;;;;;;;;;5043386;28;859;-73
2022/09/08 16:18:13;;;;;;;;;;;;;;;;;;5044054;28;811;-72
2022/09/08 16:20:53;;;;;;;;;;;;;;;;;;5043460;28;1903;-72
2022/09/08 16:23:35;;;;;;;;;;;;;;;;;;5043361;28;1515;-72
2022/09/08 16:26:12;;;;;;;;;;;;;;;;;;5043277;28;898;-72
2022/09/08 16:28:50;;;;;;;;;;;;;;;;;;5043669;28;834;-73
2022/09/08 16:31:34;;;;;;;;;;;;;;;;;;5043947;28;1252;-73
2022/09/08 16:34:08;;;;;;;;;;;;;;;;;;5043611;28;973;-73
2022/09/08 16:36:34;;;;;;;;;;;;;;;;;;5042820;28;1551;-73
2022/09/08 16:39:08;;;;;;;;;;;;;;;;;;5043584;28;1028;-73
2022/09/08 16:41:39;;;;;;;;;;;;;;;;;;5041786;28;1969;-73
2022/09/08 16:44:14;;;;;;;;;;;;;;;;;;5043627;28;831;-71
2022/09/08 16:46:40;;;;;;;;;;;;;;;;;;5041400;28;1510;-72
2022/09/08 16:49:26;;;;;;;;;;;;;;;;;;5043677;28;954;-72
2022/09/08 16:52:03;;;;;;;;;;;;;;;;;;5003618;28;1094;-72
2022/09/08 16:54:34;;;;;;;;;;;;;;;;;;5002696;28;843;-72
2022/09/08 16:56:59;;;;;;;;;;;;;;;;;;5016785;28;1385;-72
2022/09/08 16:59:37;;;;;;;;;;;;;;;;;;5023105;28;1279;-72
2022/09/08 17:02:07;;;;;;;;;;;;;;;;;;5024385;22;2069;-74
2022/09/08 17:04:47;;;;;;;;;;;;;;;;;;5022879;28;858;-75
2022/09/08 17:07:22;;;;;;;;;;;;;;;;;;5023238;28;839;-75
2022/09/08 17:09:47;;;;;;;;;;;;;;;;;;5023253;28;889;-74
2022/09/08 17:12:17;;;;;;;;;;;;;;;;;;5023267;28;1444;-74
2022/09/08 17:14:43;;;;;;;;;;;;;;;;;;5022127;28;1506;-76
2022/09/08 17:17:14;;;;;;;;;;;;;;;;;;5041739;28;1465;-74
2022/09/08 17:19:39;;;;;;;;;;;;;;;;;;5042467;28;1913;-74
2022/09/08 17:22:14;;;;;;;;;;;;;;;;;;5042536;28;1495;-75
2022/09/08 17:24:40;;;;;;;;;;;;;;;;;;5042270;28;834;-74
2022/09/08 17:27:06;;;;;;;;;;;;;;;;;;5042855;28;863;-76
2022/09/08 17:29:52;;;;;;;;;;;;;;;;;;5042720;28;837;-74
2022/09/08 17:32:39;;;;;;;;;;;;;;;;;;5042526;28;1518;-75
2022/09/08 17:35:07;;;;;;;;;;;;;;;;;;5037967;28;1530;-74
2022/09/08 17:37:35;;;;;;;;;;;;;;;;;;5042716;28;1573;-75
2022/09/08 17:40:06;;;;;;;;;;;;;;;;;;5040951;28;1951;-75
2022/09/08 17:42:46;;;;;;;;;;;;;;;;;;5042522;28;1262;-74
2022/09/08 17:45:31;;;;;;;;;;;;;;;;;;5041872;28;870;-74